Time;durP1;ratioP1;P1;durP2;ratioP2;P2;SDS_P1;SDS_P2;PMS_P1;PMS_P2;Temp;Humidity;BMP_temperature;BMP_pressure;BME280_temperature;BME280_humidity;BME280_pressure;Samples;Min_cycle;Max_cycle;Signal;HPM_P1;HPM_P2
2021/12/14 00:00:01;;;;;;;7.38;3.30;;;;;;;;;;5021976;28;20046;-95
2021/12/14 00:02:33;;;;;;;9.30;4.10;;;;;;;;;;5027406;28;20064;-95
2021/12/14 00:05:06;;;;;;;6.38;3.10;;;;;;;;;;5016903;28;20054;-94
2021/12/14 00:07:42;;;;;;;8.05;3.58;;;;;;;;;;5023847;28;20049;-95
2021/12/14 00:10:43;;;;;;;8.20;3.27;;;;;;;;;;5022346;28;20048;-95
2021/12/14 00:13:28;;;;;;;9.10;3.25;;;;;;;;;;5028779;28;20116;-95
2021/12/14 00:19:09;;;;;;;6.57;3.33;;;;;;;;;;5037455;28;20097;-94
2021/12/14 00:21:54;;;;;;;8.93;3.33;;;;;;;;;;5039910;28;20036;-95
2021/12/14 00:24:27;;;;;;;8.23;4.00;;;;;;;;;;5026723;28;20048;-94
2021/12/14 00:27:17;;;;;;;5.65;3.20;;;;;;;;;;5033980;28;20048;-95
2021/12/14 00:30:14;;;;;;;10.18;3.78;;;;;;;;;;5029995;28;20060;-95
2021/12/14 00:32:50;;;;;;;9.50;4.00;;;;;;;;;;5041338;28;20123;-94
2021/12/14 00:35:23;;;;;;;6.78;3.38;;;;;;;;;;5036120;28;20053;-95
2021/12/14 00:37:59;;;;;;;7.90;3.33;;;;;;;;;;5032047;28;20048;-94
2021/12/14 00:40:37;;;;;;;9.07;3.70;;;;;;;;;;5026673;28;20048;-95
2021/12/14 00:43:14;;;;;;;9.60;3.78;;;;;;;;;;5022518;28;20041;-95
2021/12/14 00:45:56;;;;;;;7.93;3.40;;;;;;;;;;5032589;28;20112;-95
2021/12/14 00:48:27;;;;;;;6.55;3.20;;;;;;;;;;5022009;28;20407;-93
2021/12/14 00:51:02;;;;;;;9.33;4.17;;;;;;;;;;5031819;28;20053;-95
2021/12/14 00:53:35;;;;;;;10.35;4.05;;;;;;;;;;5033734;28;20400;-95
2021/12/14 00:56:20;;;;;;;13.85;5.47;;;;;;;;;;5034268;28;20045;-94
2021/12/14 00:58:50;;;;;;;8.13;3.72;;;;;;;;;;5052783;28;20060;-95
2021/12/14 01:01:43;;;;;;;10.13;3.60;;;;;;;;;;5056984;28;20044;-94
2021/12/14 01:04:19;;;;;;;9.93;4.57;;;;;;;;;;5032525;28;20048;-94
2021/12/14 01:06:49;;;;;;;12.35;4.35;;;;;;;;;;5030141;28;20481;-95
2021/12/14 01:09:20;;;;;;;7.97;4.10;;;;;;;;;;5031844;28;20052;-94
2021/12/14 01:11:50;;;;;;;6.72;2.88;;;;;;;;;;5030153;28;20045;-93
2021/12/14 01:14:28;;;;;;;6.20;2.65;;;;;;;;;;5022083;28;20414;-94
2021/12/14 01:17:08;;;;;;;10.03;4.10;;;;;;;;;;5026091;28;20049;-95
2021/12/14 01:23:14;;;;;;;7.93;3.13;;;;;;;;;;5033046;28;20065;-93
2021/12/14 01:26:29;;;;;;;5.22;2.70;;;;;;;;;;5029596;28;20053;-94
2021/12/14 01:29:40;;;;;;;9.82;3.22;;;;;;;;;;5033330;28;20046;-93
2021/12/14 01:33:11;;;;;;;6.60;3.07;;;;;;;;;;5026028;28;20044;-94
2021/12/14 01:41:37;;;;;;;6.05;2.60;;;;;;;;;;4919889;28;20494;-93
2021/12/14 01:44:06;;;;;;;6.30;3.00;;;;;;;;;;4923969;28;20150;-94
2021/12/14 01:46:52;;;;;;;7.50;3.17;;;;;;;;;;4920346;28;20060;-94
2021/12/14 01:50:17;;;;;;;7.18;3.60;;;;;;;;;;4912514;28;20522;-94
2021/12/14 01:53:20;;;;;;;7.25;2.70;;;;;;;;;;4937332;28;20059;-94
2021/12/14 01:59:08;;;;;;;7.07;2.92;;;;;;;;;;4931018;29;20043;-95
2021/12/14 02:01:57;;;;;;;8.40;2.80;;;;;;;;;;4936635;28;20043;-93
2021/12/14 02:04:42;;;;;;;5.47;2.40;;;;;;;;;;4928210;28;20048;-93
2021/12/14 02:18:29;;;;;;;;;;;;;;;;;;;;;
2021/12/14 02:24:45;;;;;;;8.90;3.83;;;;;;;;;;5032441;28;20077;-92
2021/12/14 02:27:14;;;;;;;5.70;2.25;;;;;;;;;;5026845;28;20087;-94
2021/12/14 02:29:48;;;;;;;6.68;2.88;;;;;;;;;;5025322;28;20045;-94
2021/12/14 02:32:25;;;;;;;8.13;2.73;;;;;;;;;;5027497;28;20049;-94
2021/12/14 02:35:01;;;;;;;7.63;3.00;;;;;;;;;;5025419;28;20052;-94
2021/12/14 02:37:41;;;;;;;11.30;3.67;;;;;;;;;;5022219;28;20045;-93
2021/12/14 02:40:20;;;;;;;7.95;3.70;;;;;;;;;;5022742;28;20049;-93
2021/12/14 02:42:53;;;;;;;7.28;3.25;;;;;;;;;;5020173;28;20389;-94
2021/12/14 02:45:28;;;;;;;6.27;2.47;;;;;;;;;;5019929;28;20053;-93
2021/12/14 02:48:00;;;;;;;7.85;3.45;;;;;;;;;;5035435;28;20496;-93
2021/12/14 02:51:01;;;;;;;6.25;3.17;;;;;;;;;;5024471;28;20556;-95
2021/12/14 02:54:02;;;;;;;5.05;2.58;;;;;;;;;;5018713;28;20487;-93
2021/12/14 02:57:06;;;;;;;7.38;2.40;;;;;;;;;;5149964;27;20357;-76
2021/12/14 02:59:37;;;;;;;6.13;2.15;;;;;;;;;;5127799;27;20039;-76
2021/12/14 03:02:08;;;;;;;6.93;2.77;;;;;;;;;;5107745;27;20074;-76
2021/12/14 03:04:40;;;;;;;5.50;2.20;;;;;;;;;;5115022;27;20062;-77
2021/12/14 03:07:09;;;;;;;6.35;2.20;;;;;;;;;;5115461;27;20053;-76
2021/12/14 03:09:51;;;;;;;5.18;2.00;;;;;;;;;;5121911;27;20213;-76
2021/12/14 03:12:23;;;;;;;3.25;1.45;;;;;;;;;;5108498;27;20051;-77
2021/12/14 03:14:59;;;;;;;4.73;1.37;;;;;;;;;;5124554;27;20965;-76
2021/12/14 03:17:29;;;;;;;3.80;1.48;;;;;;;;;;5125111;27;20062;-76
2021/12/14 03:19:59;;;;;;;4.38;1.30;;;;;;;;;;5123612;27;20047;-76
2021/12/14 03:22:30;;;;;;;3.85;1.67;;;;;;;;;;5103712;27;20129;-76
2021/12/14 03:24:59;;;;;;;5.55;1.75;;;;;;;;;;5129229;27;20054;-76
2021/12/14 03:27:30;;;;;;;3.47;1.60;;;;;;;;;;5096930;27;20493;-76
2021/12/14 03:30:00;;;;;;;3.10;1.42;;;;;;;;;;5108380;27;20112;-76
2021/12/14 03:32:34;;;;;;;3.38;1.65;;;;;;;;;;5106631;27;20089;-76
2021/12/14 03:35:03;;;;;;;2.95;1.25;;;;;;;;;;5123775;27;20039;-76
2021/12/14 03:37:32;;;;;;;3.95;1.45;;;;;;;;;;5111903;27;20115;-76
2021/12/14 03:40:02;;;;;;;3.10;1.53;;;;;;;;;;5126177;27;20043;-76
2021/12/14 03:42:39;;;;;;;4.88;2.08;;;;;;;;;;5107941;27;20065;-76
2021/12/14 03:45:19;;;;;;;6.53;2.08;;;;;;;;;;5100333;27;20134;-76
2021/12/14 03:47:50;;;;;;;4.82;1.63;;;;;;;;;;5111205;27;20039;-76
2021/12/14 03:50:21;;;;;;;4.20;2.00;;;;;;;;;;5103384;27;20058;-76
2021/12/14 03:52:50;;;;;;;3.20;1.57;;;;;;;;;;5100299;27;20160;-77
2021/12/14 03:55:20;;;;;;;3.88;1.52;;;;;;;;;;5120380;28;20059;-77
2021/12/14 03:58:16;;;;;;;4.63;2.20;;;;;;;;;;5102058;28;20051;-77
2021/12/14 04:00:50;;;;;;;4.47;2.10;;;;;;;;;;5102885;28;20512;-76
2021/12/14 04:03:20;;;;;;;4.05;1.80;;;;;;;;;;5116021;28;20047;-76
2021/12/14 04:06:06;;;;;;;3.83;1.57;;;;;;;;;;5106096;28;20168;-77
2021/12/14 04:08:36;;;;;;;5.82;2.05;;;;;;;;;;5089335;28;20043;-76
2021/12/14 04:11:07;;;;;;;5.78;2.15;;;;;;;;;;5080394;28;20489;-76
2021/12/14 04:13:37;;;;;;;5.95;2.90;;;;;;;;;;5089616;28;20153;-77
2021/12/14 04:16:35;;;;;;;7.15;2.80;;;;;;;;;;5120006;27;20559;-76
2021/12/14 04:19:08;;;;;;;5.53;2.20;;;;;;;;;;5094013;28;20044;-76
2021/12/14 04:21:39;;;;;;;6.47;2.58;;;;;;;;;;5086745;28;20040;-76
2021/12/14 04:24:13;;;;;;;4.93;2.40;;;;;;;;;;5102503;28;20047;-76
2021/12/14 04:26:45;;;;;;;3.80;1.60;;;;;;;;;;5090052;28;20032;-76
2021/12/14 04:29:17;;;;;;;5.47;2.38;;;;;;;;;;5094553;28;20074;-76
2021/12/14 04:31:51;;;;;;;5.60;2.23;;;;;;;;;;5085225;28;20048;-76
2021/12/14 04:34:22;;;;;;;3.83;1.88;;;;;;;;;;5085685;28;20040;-76
2021/12/14 04:36:54;;;;;;;8.48;2.58;;;;;;;;;;5093359;28;20047;-76
2021/12/14 04:39:39;;;;;;;5.68;2.28;;;;;;;;;;5078845;28;20047;-76
2021/12/14 04:53:38;;;;;;;3.58;1.70;;;;;;;;;;5082915;28;20047;-76
2021/12/14 04:56:11;;;;;;;5.75;2.17;;;;;;;;;;5088285;28;20050;-76
2021/12/14 04:59:07;;;;;;;5.17;1.97;;;;;;;;;;5087584;28;20044;-76
2021/12/14 05:01:37;;;;;;;6.22;1.45;;;;;;;;;;5078460;28;20048;-77
2021/12/14 05:04:32;;;;;;;6.32;2.35;;;;;;;;;;5099521;28;20051;-77
2021/12/14 05:07:25;;;;;;;4.15;1.83;;;;;;;;;;5100003;28;20055;-78
2021/12/14 05:09:55;;;;;;;5.82;1.50;;;;;;;;;;5088334;28;20055;-79
2021/12/14 05:12:28;;;;;;;8.02;2.00;;;;;;;;;;5089992;28;20154;-80
2021/12/14 05:15:11;;;;;;;4.73;1.70;;;;;;;;;;5100326;28;20059;-77
2021/12/14 05:17:46;;;;;;;4.72;1.40;;;;;;;;;;5081596;28;20048;-76
2021/12/14 05:20:17;;;;;;;3.67;1.52;;;;;;;;;;5087300;28;20040;-75
2021/12/14 05:22:49;;;;;;;4.05;1.45;;;;;;;;;;5084016;28;20046;-78
2021/12/14 05:25:27;;;;;;;5.70;1.30;;;;;;;;;;5079487;28;20035;-76
2021/12/14 05:28:05;;;;;;;4.83;1.43;;;;;;;;;;5087866;28;20059;-74
2021/12/14 05:31:03;;;;;;;4.72;1.77;;;;;;;;;;5083993;28;20096;-77
2021/12/14 05:33:36;;;;;;;5.10;1.92;;;;;;;;;;5106424;28;20528;-74
2021/12/14 05:36:29;;;;;;;4.03;1.58;;;;;;;;;;5087128;28;20055;-72
2021/12/14 05:39:06;;;;;;;4.28;1.70;;;;;;;;;;5082744;28;20130;-72
2021/12/14 05:45:02;;;;;;;3.45;1.42;;;;;;;;;;5094266;28;20050;-72
2021/12/14 05:47:32;;;;;;;4.35;1.35;;;;;;;;;;5077017;28;20044;-71
2021/12/14 05:50:07;;;;;;;5.75;1.70;;;;;;;;;;5091857;28;20520;-71
2021/12/14 05:52:38;;;;;;;4.88;1.88;;;;;;;;;;5093176;28;20189;-75
2021/12/14 05:55:21;;;;;;;5.03;1.83;;;;;;;;;;5091620;28;20414;-71
2021/12/14 05:57:50;;;;;;;4.10;1.60;;;;;;;;;;5074892;28;20122;-72
2021/12/14 06:00:18;;;;;;;7.90;2.38;;;;;;;;;;5078643;28;20048;-72
2021/12/14 06:02:59;;;;;;;3.70;1.88;;;;;;;;;;5093425;28;20054;-77
2021/12/14 06:05:31;;;;;;;5.30;1.70;;;;;;;;;;5093154;28;20151;-74
2021/12/14 06:08:00;;;;;;;5.97;2.37;;;;;;;;;;5081969;28;20139;-76
2021/12/14 06:10:31;;;;;;;5.30;2.65;;;;;;;;;;5092720;28;20086;-78
2021/12/14 06:13:03;;;;;;;7.50;3.00;;;;;;;;;;5094265;28;20075;-78
2021/12/14 06:15:36;;;;;;;5.65;2.67;;;;;;;;;;5101467;28;20047;-80
2021/12/14 06:18:14;;;;;;;4.93;1.92;;;;;;;;;;5080363;28;20469;-81
2021/12/14 06:21:10;;;;;;;4.83;1.90;;;;;;;;;;5091993;28;20101;-74
2021/12/14 06:24:17;;;;;;;4.72;1.90;;;;;;;;;;5106882;28;20035;-74
2021/12/14 06:26:49;;;;;;;5.30;2.20;;;;;;;;;;5085521;28;20150;-74
2021/12/14 06:29:43;;;;;;;7.55;2.90;;;;;;;;;;5061437;28;20439;-74
2021/12/14 06:32:15;;;;;;;5.78;1.92;;;;;;;;;;5086413;28;20050;-74
2021/12/14 06:34:45;;;;;;;5.40;2.10;;;;;;;;;;5081909;28;20599;-74
2021/12/14 06:37:54;;;;;;;4.20;1.95;;;;;;;;;;5076016;28;20052;-74
2021/12/14 06:40:27;;;;;;;4.55;1.42;;;;;;;;;;5091771;28;20047;-74
2021/12/14 06:42:58;;;;;;;5.60;2.20;;;;;;;;;;5095683;28;20509;-74
2021/12/14 06:45:28;;;;;;;3.78;1.83;;;;;;;;;;5088362;28;20036;-74
2021/12/14 06:48:03;;;;;;;5.43;1.70;;;;;;;;;;5081426;28;20406;-74
2021/12/14 06:50:35;;;;;;;5.25;1.85;;;;;;;;;;5085091;28;20173;-74
2021/12/14 06:53:09;;;;;;;4.90;1.42;;;;;;;;;;5100702;28;20043;-73
2021/12/14 06:55:58;;;;;;;4.65;1.20;;;;;;;;;;5090585;28;20139;-74
2021/12/14 06:58:53;;;;;;;4.03;2.00;;;;;;;;;;5114360;28;20496;-73
2021/12/14 07:01:36;;;;;;;2.90;1.03;;;;;;;;;;5084225;28;20050;-74
2021/12/14 07:04:06;;;;;;;4.13;1.40;;;;;;;;;;5077670;28;20525;-74
2021/12/14 07:06:39;;;;;;;3.13;1.20;;;;;;;;;;5082507;28;20490;-74
2021/12/14 07:09:10;;;;;;;2.92;1.13;;;;;;;;;;5074411;28;20486;-74
2021/12/14 07:11:41;;;;;;;4.40;1.65;;;;;;;;;;5092859;28;20047;-73
2021/12/14 07:14:22;;;;;;;4.87;1.90;;;;;;;;;;5091205;28;20052;-74
2021/12/14 07:16:51;;;;;;;6.05;1.88;;;;;;;;;;5063880;28;20102;-74
2021/12/14 07:19:39;;;;;;;6.70;1.92;;;;;;;;;;5093663;28;20071;-74
2021/12/14 07:22:13;;;;;;;6.07;1.60;;;;;;;;;;5078963;28;20048;-74
2021/12/14 07:24:42;;;;;;;4.43;1.95;;;;;;;;;;5107008;28;20047;-74
2021/12/14 07:27:29;;;;;;;4.97;1.57;;;;;;;;;;5091958;28;20055;-74
2021/12/14 07:30:12;;;;;;;5.20;1.80;;;;;;;;;;5098507;28;20043;-74
2021/12/14 07:32:44;;;;;;;5.25;2.17;;;;;;;;;;5094088;28;20044;-74
2021/12/14 07:35:27;;;;;;;5.65;2.35;;;;;;;;;;5095585;28;20051;-74
2021/12/14 07:37:57;;;;;;;6.90;2.33;;;;;;;;;;5096426;28;20044;-74
2021/12/14 07:40:33;;;;;;;5.47;2.13;;;;;;;;;;5088423;28;20039;-73
2021/12/14 07:43:10;;;;;;;4.63;1.65;;;;;;;;;;5101282;28;20048;-74
2021/12/14 07:45:44;;;;;;;5.85;1.95;;;;;;;;;;5090685;28;20131;-74
2021/12/14 07:48:14;;;;;;;6.78;2.60;;;;;;;;;;5103908;28;20115;-73
2021/12/14 07:50:47;;;;;;;7.47;2.47;;;;;;;;;;5078543;28;20043;-74
2021/12/14 07:53:30;;;;;;;8.53;1.83;;;;;;;;;;5096898;28;20750;-73
2021/12/14 07:55:59;;;;;;;6.43;2.13;;;;;;;;;;5096245;28;20058;-73
2021/12/14 07:58:31;;;;;;;5.03;1.73;;;;;;;;;;5090914;28;20040;-74
2021/12/14 08:01:01;;;;;;;7.35;2.78;;;;;;;;;;5089017;28;20427;-73
2021/12/14 08:03:33;;;;;;;5.35;2.13;;;;;;;;;;5071345;28;20048;-74
2021/12/14 08:06:33;;;;;;;7.20;2.20;;;;;;;;;;5092399;28;20043;-74
2021/12/14 08:09:02;;;;;;;8.63;2.42;;;;;;;;;;5092156;28;20040;-74
2021/12/14 08:11:47;;;;;;;4.90;1.77;;;;;;;;;;5088884;28;20312;-74
2021/12/14 08:14:24;;;;;;;6.22;2.10;;;;;;;;;;5088204;28;20056;-74
2021/12/14 08:17:00;;;;;;;5.22;2.13;;;;;;;;;;5079158;28;20059;-72
2021/12/14 08:19:33;;;;;;;4.17;1.97;;;;;;;;;;5087806;28;20036;-71
2021/12/14 08:22:05;;;;;;;5.00;2.40;;;;;;;;;;5076900;28;20052;-72
2021/12/14 08:24:35;;;;;;;6.47;2.15;;;;;;;;;;5090963;28;20044;-72
2021/12/14 08:27:05;;;;;;;6.65;2.38;;;;;;;;;;5083679;28;20048;-71
2021/12/14 08:29:37;;;;;;;7.07;2.50;;;;;;;;;;5061476;28;20044;-72
2021/12/14 08:32:12;;;;;;;5.37;1.93;;;;;;;;;;5076458;28;20108;-72
2021/12/14 08:34:44;;;;;;;4.63;2.00;;;;;;;;;;5075972;28;20071;-72
2021/12/14 08:37:35;;;;;;;4.47;2.00;;;;;;;;;;5076902;28;20036;-72
2021/12/14 08:40:07;;;;;;;4.38;2.10;;;;;;;;;;5079912;28;20048;-72
2021/12/14 08:42:44;;;;;;;8.60;2.90;;;;;;;;;;5075082;28;20121;-72
2021/12/14 08:45:26;;;;;;;6.70;2.30;;;;;;;;;;5085015;28;20619;-72
2021/12/14 08:47:58;;;;;;;5.72;2.40;;;;;;;;;;5088791;28;20048;-72
2021/12/14 08:50:27;;;;;;;6.05;2.05;;;;;;;;;;5069905;28;20047;-72
2021/12/14 08:52:56;;;;;;;7.68;2.60;;;;;;;;;;5086643;28;20751;-72
2021/12/14 08:55:31;;;;;;;8.52;2.60;;;;;;;;;;5091687;28;20378;-72
2021/12/14 08:58:00;;;;;;;7.17;2.37;;;;;;;;;;5122529;27;20060;-72
2021/12/14 09:00:31;;;;;;;6.20;2.58;;;;;;;;;;5088319;28;20051;-72
2021/12/14 09:03:03;;;;;;;6.63;2.42;;;;;;;;;;5100918;28;20113;-72
2021/12/14 09:05:36;;;;;;;6.13;2.72;;;;;;;;;;5099750;28;20494;-72
2021/12/14 09:08:06;;;;;;;4.72;1.98;;;;;;;;;;5092425;28;20605;-73
2021/12/14 09:10:37;;;;;;;3.97;1.67;;;;;;;;;;5092600;28;20052;-72
2021/12/14 09:13:10;;;;;;;5.30;2.17;;;;;;;;;;5093361;28;20044;-73
2021/12/14 09:15:39;;;;;;;5.82;2.13;;;;;;;;;;5092054;28;20485;-73
2021/12/14 09:18:10;;;;;;;6.90;2.25;;;;;;;;;;5099086;28;20040;-72
2021/12/14 09:20:41;;;;;;;5.95;2.47;;;;;;;;;;5095439;28;20526;-72
2021/12/14 09:23:11;;;;;;;6.20;2.57;;;;;;;;;;5077520;28;20486;-72
2021/12/14 09:25:40;;;;;;;6.47;2.38;;;;;;;;;;5098997;28;20459;-72
2021/12/14 09:28:10;;;;;;;4.22;1.45;;;;;;;;;;5092272;28;20056;-72
2021/12/14 09:30:47;;;;;;;6.85;2.30;;;;;;;;;;5098786;28;20482;-73
2021/12/14 09:33:19;;;;;;;6.57;2.17;;;;;;;;;;5091589;28;20052;-73
2021/12/14 09:35:49;;;;;;;6.37;2.20;;;;;;;;;;5097010;28;20393;-72
2021/12/14 09:38:31;;;;;;;7.10;2.72;;;;;;;;;;5093688;28;20040;-73
2021/12/14 09:41:03;;;;;;;7.30;2.35;;;;;;;;;;5108953;27;20352;-73
2021/12/14 09:47:17;;;;;;;6.38;1.95;;;;;;;;;;5093465;28;20363;-73
2021/12/14 09:49:54;;;;;;;6.87;3.07;;;;;;;;;;5087550;28;20478;-73
2021/12/14 09:52:25;;;;;;;6.78;2.45;;;;;;;;;;5105220;28;20044;-72
2021/12/14 09:54:54;;;;;;;5.78;1.70;;;;;;;;;;5108822;27;20040;-72
2021/12/14 09:57:24;;;;;;;4.88;1.80;;;;;;;;;;5109246;27;20122;-73
2021/12/14 09:59:54;;;;;;;9.15;2.00;;;;;;;;;;5106760;27;20064;-73
2021/12/14 10:02:24;;;;;;;6.07;2.70;;;;;;;;;;5095457;27;20047;-73
2021/12/14 10:04:56;;;;;;;6.00;2.92;;;;;;;;;;5108647;27;20133;-73
2021/12/14 10:07:26;;;;;;;5.18;2.35;;;;;;;;;;5106992;27;20039;-73
2021/12/14 10:09:59;;;;;;;8.10;2.85;;;;;;;;;;5080790;28;20481;-73
2021/12/14 10:12:50;;;;;;;6.90;3.05;;;;;;;;;;5104154;28;20063;-73
2021/12/14 10:15:21;;;;;;;6.17;2.27;;;;;;;;;;5106475;28;20900;-73
2021/12/14 10:17:50;;;;;;;7.00;2.33;;;;;;;;;;5087012;27;20057;-73
2021/12/14 10:20:23;;;;;;;6.03;2.20;;;;;;;;;;5080026;28;20043;-72
2021/12/14 10:22:53;;;;;;;6.70;2.53;;;;;;;;;;5097693;28;20503;-73
2021/12/14 10:25:25;;;;;;;10.88;2.50;;;;;;;;;;5098158;27;20043;-73
2021/12/14 10:27:56;;;;;;;5.50;2.77;;;;;;;;;;5105586;28;20055;-73
2021/12/14 10:30:26;;;;;;;6.15;2.60;;;;;;;;;;5102140;28;20167;-72
2021/12/14 10:32:56;;;;;;;7.60;2.53;;;;;;;;;;5080854;28;20052;-73
2021/12/14 10:35:32;;;;;;;7.03;2.33;;;;;;;;;;5121979;27;20100;-73
2021/12/14 10:38:12;;;;;;;7.25;2.35;;;;;;;;;;5108622;27;20054;-73
2021/12/14 10:43:56;;;;;;;9.15;3.20;;;;;;;;;;5105730;27;20735;-72
2021/12/14 10:46:25;;;;;;;8.65;2.78;;;;;;;;;;5107925;28;20043;-73
2021/12/14 10:48:55;;;;;;;7.72;2.58;;;;;;;;;;5099510;28;20374;-79
2021/12/14 10:51:31;;;;;;;8.75;3.28;;;;;;;;;;5090403;28;20080;-75
2021/12/14 10:54:02;;;;;;;8.00;2.73;;;;;;;;;;5110345;28;20050;-73
2021/12/14 10:57:11;;;;;;;9.40;3.42;;;;;;;;;;5103315;28;20043;-73
2021/12/14 10:59:42;;;;;;;6.28;2.88;;;;;;;;;;5110601;28;20039;-73
2021/12/14 11:05:05;;;;;;;8.30;2.95;;;;;;;;;;5085551;28;20047;-72
2021/12/14 11:07:40;;;;;;;7.13;2.73;;;;;;;;;;5096758;28;20506;-72
2021/12/14 11:10:10;;;;;;;10.52;2.70;;;;;;;;;;5094811;28;20074;-73
2021/12/14 11:12:42;;;;;;;6.90;2.83;;;;;;;;;;5095683;28;20058;-73
2021/12/14 11:15:12;;;;;;;10.98;3.60;;;;;;;;;;5101121;28;20062;-72
2021/12/14 11:20:31;;;;;;;7.20;2.67;;;;;;;;;;5104218;28;20044;-72
2021/12/14 11:23:05;;;;;;;7.78;2.63;;;;;;;;;;5112211;27;20497;-72
2021/12/14 11:25:39;;;;;;;9.32;3.47;;;;;;;;;;5127480;27;20039;-72
2021/12/14 11:28:09;;;;;;;7.20;3.08;;;;;;;;;;5106232;27;20044;-72
2021/12/14 11:31:04;;;;;;;10.02;3.83;;;;;;;;;;5100799;27;20039;-72
2021/12/14 11:33:36;;;;;;;8.53;3.27;;;;;;;;;;5114346;27;20075;-72
2021/12/14 17:05:25;;;;;;;8.82;3.03;;;;;;;;;;5106472;22;20053;-71
2021/12/14 17:08:21;;;;;;;8.13;3.28;;;;;;;;;;5074847;28;20054;-71
2021/12/14 17:10:54;;;;;;;8.60;3.50;;;;;;;;;;5045388;28;20059;-72
2021/12/14 17:13:48;;;;;;;7.70;2.97;;;;;;;;;;5061892;28;20715;-74
2021/12/14 17:16:42;;;;;;;7.57;3.47;;;;;;;;;;5054020;28;20146;-75
2021/12/14 17:19:22;;;;;;;9.82;4.40;;;;;;;;;;5074909;28;20052;-71
2021/12/14 17:21:53;;;;;;;10.40;4.53;;;;;;;;;;5075008;28;20406;-71
2021/12/14 17:24:24;;;;;;;10.50;3.85;;;;;;;;;;5055877;28;20193;-71
2021/12/14 17:26:57;;;;;;;11.82;3.75;;;;;;;;;;5069019;28;20093;-70
2021/12/14 17:29:30;;;;;;;10.23;4.00;;;;;;;;;;5044890;28;20052;-71
2021/12/14 17:32:02;;;;;;;9.75;4.38;;;;;;;;;;5060487;28;20049;-71
2021/12/14 17:34:32;;;;;;;11.70;4.38;;;;;;;;;;5068275;28;20048;-71
2021/12/14 17:37:03;;;;;;;10.80;3.40;;;;;;;;;;5043835;28;20052;-71
2021/12/14 17:39:34;;;;;;;8.85;3.78;;;;;;;;;;5057737;28;20059;-71
2021/12/14 17:42:06;;;;;;;9.27;3.77;;;;;;;;;;5049171;28;20231;-71
2021/12/14 17:44:36;;;;;;;11.25;4.47;;;;;;;;;;5078319;28;20054;-71
2021/12/14 17:47:07;;;;;;;12.05;5.00;;;;;;;;;;5065467;28;20076;-72
2021/12/14 17:49:38;;;;;;;9.23;3.90;;;;;;;;;;5065058;28;20052;-73
2021/12/14 17:52:09;;;;;;;9.15;4.30;;;;;;;;;;5059829;28;20127;-73
2021/12/14 17:54:40;;;;;;;9.10;4.03;;;;;;;;;;5060486;28;20056;-73
2021/12/14 17:57:13;;;;;;;8.82;3.45;;;;;;;;;;5074632;28;20052;-77
2021/12/14 17:59:44;;;;;;;10.02;4.18;;;;;;;;;;5037973;28;20048;-76
2021/12/14 18:02:14;;;;;;;9.75;4.13;;;;;;;;;;5056469;28;20055;-71
2021/12/14 18:04:44;;;;;;;11.60;4.65;;;;;;;;;;5062027;28;20047;-71
2021/12/14 18:07:16;;;;;;;10.23;4.43;;;;;;;;;;5062701;28;20509;-70
2021/12/14 18:09:48;;;;;;;10.07;4.50;;;;;;;;;;5057244;28;20052;-71
2021/12/14 18:12:19;;;;;;;10.90;3.90;;;;;;;;;;5048507;28;20052;-76
2021/12/14 18:14:49;;;;;;;13.32;4.15;;;;;;;;;;5060377;28;20578;-73
2021/12/14 18:17:25;;;;;;;11.40;4.65;;;;;;;;;;5042911;28;20131;-76
2021/12/14 18:19:55;;;;;;;11.13;3.57;;;;;;;;;;5049900;28;20094;-76
2021/12/14 18:22:26;;;;;;;10.77;4.53;;;;;;;;;;5054596;28;20045;-77
2021/12/14 18:25:02;;;;;;;9.45;3.47;;;8.80;99.90;;;;;;5061936;28;20051;-76
2021/12/14 18:27:35;;;;;;;13.85;3.90;;;7.90;99.90;;;;;;5045997;28;20114;-76
2021/12/14 18:30:10;;;;;;;10.20;3.80;;;7.90;99.90;;;;;;5058248;28;20033;-76
2021/12/14 18:32:42;;;;;;;10.97;3.73;;;8.00;99.90;;;;;;5051864;28;20047;-76
2021/12/14 18:35:14;;;;;;;13.23;5.05;;;8.00;99.90;;;;;;5052153;28;20040;-75
2021/12/14 18:37:49;;;;;;;9.30;4.50;;;8.00;99.90;;;;;;5041241;28;20045;-75
2021/12/14 18:40:45;;;;;;;13.63;4.90;;;7.90;99.90;;;;;;5057517;28;20109;-75
2021/12/14 18:43:18;;;;;;;15.90;4.15;;;7.90;99.90;;;;;;5066584;28;20080;-75
2021/12/14 18:45:57;;;;;;;15.10;5.07;;;7.90;99.90;;;;;;5058274;28;20052;-76
2021/12/14 18:51:16;;;;;;;10.20;3.63;;;7.90;99.90;;;;;;5052889;28;20051;-75
2021/12/14 18:53:44;;;;;;;13.98;4.03;;;7.90;99.90;;;;;;5053225;28;20044;-76
2021/12/14 18:56:19;;;;;;;10.25;4.85;;;7.90;99.90;;;;;;5055949;28;20051;-75
2021/12/14 18:59:16;;;;;;;10.40;4.97;;;7.90;99.90;;;;;;5054745;28;20052;-76
2021/12/14 19:01:50;;;;;;;10.98;3.95;;;7.90;99.90;;;;;;5042604;28;20103;-75
2021/12/14 19:04:24;;;;;;;12.73;4.57;;;7.90;99.90;;;;;;5053625;28;20074;-75
2021/12/14 19:06:55;;;;;;;9.25;3.78;;;7.90;99.90;;;;;;5059719;28;20139;-76
2021/12/14 19:09:31;;;;;;;9.57;4.13;;;7.90;99.90;;;;;;5062869;28;20083;-75
2021/12/14 19:12:23;;;;;;;11.57;4.17;;;7.90;99.90;;;;;;5060236;28;20498;-75
2021/12/14 19:15:15;;;;;;;7.07;3.28;;;7.90;99.90;;;;;;5059695;28;20578;-74
2021/12/14 19:17:47;;;;;;;10.55;4.75;;;7.90;99.90;;;;;;5057182;28;20044;-76
2021/12/14 19:20:18;;;;;;;11.98;4.85;;;7.90;99.90;;;;;;5076901;28;20194;-76
2021/12/14 19:22:52;;;;;;;11.02;4.63;;;7.90;99.90;;;;;;5058131;28;20102;-75
2021/12/14 19:25:25;;;;;;;8.97;3.67;;;7.90;99.90;;;;;;5040883;28;20048;-75
2021/12/14 19:27:55;;;;;;;15.05;4.75;;;;;;;;;;5065477;28;20052;-76
2021/12/14 19:30:25;;;;;;;12.88;4.68;;;;;;;;;;5048771;28;20129;-75
2021/12/14 19:32:57;;;;;;;8.65;3.65;;;;;;;;;;5054550;28;20040;-75
2021/12/14 19:35:29;;;;;;;10.27;4.35;;;;;;;;;;5059821;28;20048;-75
2021/12/14 19:37:59;;;;;;;12.07;5.17;;;;;;;;;;5072955;28;20139;-76
2021/12/14 19:40:33;;;;;;;9.95;3.78;;;;;;;;;;5074377;28;20044;-76
2021/12/14 19:43:03;;;;;;;11.23;4.78;;;;;;;;;;5058261;28;20144;-76
2021/12/14 19:45:35;;;;;;;10.18;4.50;;;;;;;;;;5075321;28;20044;-76
2021/12/14 19:48:11;;;;;;;10.60;4.28;;;;;;;;;;5067181;28;20474;-76
2021/12/14 19:50:40;;;;;;;13.73;4.57;;;;;;;;;;5043796;28;20117;-75
2021/12/14 19:53:11;;;;;;;11.13;4.95;;;;;;;;;;5065889;28;20106;-75
2021/12/14 19:55:40;;;;;;;10.35;4.78;;;;;;;;;;5063618;28;20136;-75
2021/12/14 19:58:11;;;;;;;10.60;3.95;;;;;;;;;;5061262;28;20060;-76
2021/12/14 20:00:48;;;;;;;9.45;4.38;;;;;;;;;;5071345;28;20135;-75
2021/12/14 20:03:20;;;;;;;9.93;4.20;;;;;;;;;;5062726;28;20056;-75
2021/12/14 20:05:51;;;;;;;8.88;4.10;;;;;;;;;;5048690;28;20067;-75
2021/12/14 20:08:22;;;;;;;13.63;4.47;;;;;;;;;;5040083;28;20140;-75
2021/12/14 20:10:51;;;;;;;12.73;4.30;;;;;;;;;;5066902;28;20090;-76
2021/12/14 20:13:21;;;;;;;11.98;4.22;;;;;;;;;;5068559;28;20052;-75
2021/12/14 20:15:56;;;;;;;10.33;4.37;;;;;;;;;;5058503;28;20049;-75
2021/12/14 20:18:28;;;;;;;11.32;4.20;;;;;;;;;;5056616;28;20089;-76
2021/12/14 20:20:59;;;;;;;12.50;4.50;;;;;;;;;;5063061;28;20076;-76
2021/12/14 20:23:32;;;;;;;10.07;4.57;;;;;;;;;;5040857;28;20051;-75
2021/12/14 20:26:07;;;;;;;11.25;4.75;;;;;;;;;;5054457;28;20049;-75
2021/12/14 20:28:39;;;;;;;8.03;4.30;;;;;;;;;;5066705;28;20517;-75
2021/12/14 20:31:13;;;;;;;12.70;4.82;;;;;;;;;;5055688;28;20411;-75
2021/12/14 20:33:46;;;;;;;13.23;4.97;;;;;;;;;;5039280;28;20045;-76
2021/12/14 20:36:22;;;;;;;11.18;3.85;;;;;;;;;;5066904;28;20355;-76
2021/12/14 20:38:51;;;;;;;13.43;4.97;;;;;;;;;;5059512;28;20445;-77
2021/12/14 20:41:28;;;;;;;9.23;3.70;;;7.90;99.90;;;;;;5043381;28;20375;-75
2021/12/14 20:44:18;;;;;;;11.10;4.13;;;7.90;99.90;;;;;;5054604;28;20487;-75
2021/12/14 20:46:49;;;;;;;11.02;4.32;;;;;;;;;;5043155;28;20131;-75
2021/12/14 20:49:19;;;;;;;13.57;4.45;;;;;;;;;;5037067;28;20056;-75
2021/12/14 20:51:50;;;;;;;14.25;4.28;;;;;;;;;;5053343;28;20411;-76
2021/12/14 20:54:20;;;;;;;9.57;3.33;;;;;;;;;;5036771;28;20132;-76
2021/12/14 20:56:49;;;;;;;9.88;4.30;;;;;;;;;;5054267;28;20052;-75
2021/12/14 20:59:30;;;;;;;12.27;4.72;;;;;;;;;;5042427;28;20068;-76
2021/12/14 21:02:25;;;;;;;9.13;3.00;;;;;;;;;;5037920;28;20040;-76
2021/12/14 21:04:57;;;;;;;10.27;3.75;;;;;;;;;;5051810;28;20059;-76
2021/12/14 21:07:29;;;;;;;8.50;3.37;;;;;;;;;;5057837;28;20117;-75
2021/12/14 21:10:01;;;;;;;8.25;3.35;;;;;;;;;;5066172;28;20499;-75
2021/12/14 21:12:30;;;;;;;10.18;4.50;;;;;;;;;;5054978;28;20053;-75
2021/12/14 21:15:03;;;;;;;9.73;3.58;;;;;;;;;;5057690;28;20094;-75
2021/12/14 21:17:36;;;;;;;7.18;3.13;;;;;;;;;;5061144;28;20045;-75
2021/12/14 21:20:07;;;;;;;11.07;3.80;;;;;;;;;;5060525;28;20530;-76
2021/12/14 21:22:39;;;;;;;9.73;4.15;;;;;;;;;;5039558;28;20102;-75
2021/12/14 21:25:14;;;;;;;7.30;3.72;;;;;;;;;;5038579;28;20410;-75
2021/12/14 21:27:47;;;;;;;13.02;4.47;;;;;;;;;;5066056;28;20135;-75
2021/12/14 21:30:18;;;;;;;13.23;4.30;;;;;;;;;;5053209;28;20157;-75
2021/12/14 21:33:20;;;;;;;9.67;3.23;;;;;;;;;;5051717;28;20084;-75
2021/12/14 21:35:51;;;;;;;9.85;3.80;;;;;;;;;;5035941;28;20048;-75
2021/12/14 21:38:28;;;;;;;10.55;3.85;;;;;;;;;;5065798;28;20493;-75
2021/12/14 21:41:00;;;;;;;10.15;3.78;;;;;;;;;;5036419;28;20138;-75
2021/12/14 21:43:48;;;;;;;11.73;4.68;;;;;;;;;;5052510;28;20466;-76
2021/12/14 21:46:38;;;;;;;10.63;3.40;;;;;;;;;;5052464;28;20132;-75
2021/12/14 21:49:10;;;;;;;10.30;4.30;;;;;;;;;;5049048;28;20045;-75
2021/12/14 21:51:38;;;;;;;9.82;4.32;;;;;;;;;;5048451;28;20565;-76
2021/12/14 21:54:07;;;;;;;9.32;3.88;;;;;;;;;;5043371;28;20192;-76